Airfield :
LOGIN :

Register | Disclaimer

   EN    FR    IT 

 










Legend :    VFR   Marginal VFR   IFR   Intensive IFR   Very Intensive IFR
Visi :
Ceiling :
>= 8 km
>= 3000ft
5 to 8 km
1000 to 3000 ft
1500m to 5 km
500 to 1000 ft
800 to 1500m
200 to 500 ft
< 800m
< 200 ft
Symbols :   Thunderstorms  Fog  Heavy snow  Heavy precipitations  Wind > 20 kt
SIGMETs :     Misc.  Thunderstorms  Icing  Turbulence  Mountain Waves  Volcanic Ashes






- Airport Elevation : 313 ft
- IATA code : LEH


LFOH - Le Havre Octeville

CURRENT METAR :
  • 021630Z AUTO 30010KT 270V330 9999 FEW013 BKN049 09/06 Q1016 TEMPO BKN011 BKN040

EXPIRED METARs :
  • 021600Z AUTO 30009KT 270V340 9999 BKN013 OVC044 08/06 Q1016 BECMG BKN040
  • 021530Z AUTO 30009KT 270V330 9999 SCT014 OVC044 09/06 Q1016 NOSIG
  • 021500Z AUTO 30009KT 270V330 9999 BKN015 OVC043 09/06 Q1017 NOSIG
  • 021430Z AUTO 30009KT 270V330 9999 OVC043 09/05 Q1017 NOSIG
  • 021400Z AUTO 30009KT 270V330 9999 SCT021 OVC041 09/04 Q1017 NOSIG

TAF AMD TAF LFOH
Valid from the 02 at 16:00 until the 03 at 12:00 UTC


021605Z 0216/0312 29010KT 9999 BKN040
TEMPO 0216/0218 BKN011 BKN040
PROB30
TEMPO 0220/0224 4000 RA BKN005 OVC030
BECMG 0303/0306 BKN005
ATIS : +33 2 35 54 64 93



MET'MAP, your aeronautical weather chart ! - Copyright ORBIFLY December 2007 - Disclaimer

ORBIFLY MET'MAP TEAM :

Programming & Development : Alexandra Zaïnal
Concept & original design : Baudouin d'Aumeries
Assistance for programming : Marc-Olivier Méhu
Technical & hardware support : Manuel Goepfert

Contact : metmap@orbifly.com




SOURCES & CREDITS :

   NOAA